New Jersey Responder — WBO8578 — position and weather

sailwx.info

Track history (hours):
 
Tides and Currents Weather Stations Pressure Air Temp Water Temp Dewpoint Dewpoint Depression Visibility Wind Speed Wind Dir Waves Ship Positions

New Jersey Responder

Owner: MARINE SPILL RESPONSE CORP, HERNDON, VA. More information available from US FCC via Universal Licensing System and Coast Guard Vessel Documentation Center.

Last reported at 2017-Nov-17 10:34 UTC. Time now 2017-Nov-21 10:21 UTC.
Position N 40°33' W 074°15'.

; draft 4 m.

Type: Pollution control. MMSI: 366594000.

Date/timePositionNaut miles runAvg speedWind from/ knotsBaromVisibWave heightAir tempDewpointWater temp
2017-Nov-17 10:34N 40°33' W 074°15'0 5.7
2017-Nov-17 10:30N 40°33' W 074°15'3 4.9
2017-Nov-17 09:59N 40°35' W 074°13'3 5.5
2017-Nov-17 09:30N 40°38' W 074°12'2 4.6
2017-Nov-17 09:00N 40°39' W 074°10'2 4.3
2017-Nov-17 08:30N 40°39' W 074°07'2 4.8
2017-Nov-17 08:00N 40°39' W 074°04'3 5.7
2017-Nov-17 07:30N 40°41' W 074°02'4 7.4
2017-Nov-17 07:00N 40°45' W 074°01'4 7.7
2017-Nov-17 06:30N 40°48' W 073°59'4 7.8
2017-Nov-17 06:00N 40°52' W 073°56'4 7.1
2017-Nov-17 05:29N 40°55' W 073°55'4 7.8
2017-Nov-17 04:59N 40°59' W 073°54'0 0.1
2017-Nov-17 02:58N 40°59' W 073°53'3 7.3
2017-Nov-17 02:30N 40°56' W 073°54'3 5.5
2017-Nov-17 02:00N 40°53' W 073°56'3 5.5
2017-Nov-17 01:30N 40°51' W 073°57'4 7.5
2017-Nov-17 01:00N 40°48' W 073°59'611.2
2017-Nov-17 00:30N 40°42' W 074°02'5 9.9
2017-Nov-17 00:00N 40°39' W 074°06'5 9.1
2017-Nov-16 23:30N 40°38' W 074°12'3 6.7
2017-Nov-16 23:00N 40°34' W 074°13'  
2017-Nov-07 20:02N 40°30' W 074°10'010.1
2017-Nov-07 20:00N 40°30' W 074°10'4 6.9
2017-Nov-07 19:27N 40°29' W 074°05'1 1.7
2017-Nov-07 18:59N 40°29' W 074°04'1 1.8
2017-Nov-07 18:21N 40°30' W 074°05'0 0.6
2017-Nov-07 18:01N 40°30' W 074°05'1 1.5
2017-Nov-07 17:29N 40°30' W 074°06'1 1.1
2017-Nov-07 16:58N 40°30' W 074°07'0 0.7
2017-Nov-07 16:27N 40°30' W 074°07'1 1.5
2017-Nov-07 15:53N 40°30' W 074°06'2 3.2
2017-Nov-07 15:24N 40°30' W 074°04'3 2.7
2017-Nov-07 14:24N 40°30' W 074°08'3 7.7
2017-Nov-07 14:00N 40°30' W 074°12'  
Track history (hours):
 
Tides and Currents Weather Stations Pressure Air Temp Water Temp Dewpoint Dewpoint Depression Visibility Wind Speed Wind Dir Waves Ship Positions

New Jersey Responder

Owner: MARINE SPILL RESPONSE CORP, HERNDON, VA. More information available from US FCC via Universal Licensing System and Coast Guard Vessel Documentation Center.

Last reported at 2017-Nov-17 10:34 UTC. Time now 2017-Nov-21 10:21 UTC.
Position N 40°33' W 074°15'.

; draft 4 m.

Type: Pollution control. MMSI: 366594000.

Date/timePositionNaut miles runAvg speedWind from/ knotsBaromVisibWave heightAir tempDewpointWater temp
2017-Nov-17 10:34N 40°33' W 074°15'0 5.7
2017-Nov-17 10:30N 40°33' W 074°15'3 4.9
2017-Nov-17 09:59N 40°35' W 074°13'3 5.5
2017-Nov-17 09:30N 40°38' W 074°12'2 4.6
2017-Nov-17 09:00N 40°39' W 074°10'2 4.3
2017-Nov-17 08:30N 40°39' W 074°07'2 4.8
2017-Nov-17 08:00N 40°39' W 074°04'3 5.7
2017-Nov-17 07:30N 40°41' W 074°02'4 7.4
2017-Nov-17 07:00N 40°45' W 074°01'4 7.7
2017-Nov-17 06:30N 40°48' W 073°59'4 7.8
2017-Nov-17 06:00N 40°52' W 073°56'4 7.1
2017-Nov-17 05:29N 40°55' W 073°55'4 7.8
2017-Nov-17 04:59N 40°59' W 073°54'0 0.1
2017-Nov-17 02:58N 40°59' W 073°53'3 7.3
2017-Nov-17 02:30N 40°56' W 073°54'3 5.5
2017-Nov-17 02:00N 40°53' W 073°56'3 5.5
2017-Nov-17 01:30N 40°51' W 073°57'4 7.5
2017-Nov-17 01:00N 40°48' W 073°59'611.2
2017-Nov-17 00:30N 40°42' W 074°02'5 9.9
2017-Nov-17 00:00N 40°39' W 074°06'5 9.1
2017-Nov-16 23:30N 40°38' W 074°12'3 6.7
2017-Nov-16 23:00N 40°34' W 074°13'  
2017-Nov-07 20:02N 40°30' W 074°10'010.1
2017-Nov-07 20:00N 40°30' W 074°10'4 6.9
2017-Nov-07 19:27N 40°29' W 074°05'1 1.7
2017-Nov-07 18:59N 40°29' W 074°04'1 1.8
2017-Nov-07 18:21N 40°30' W 074°05'0 0.6
2017-Nov-07 18:01N 40°30' W 074°05'1 1.5
2017-Nov-07 17:29N 40°30' W 074°06'1 1.1
2017-Nov-07 16:58N 40°30' W 074°07'0 0.7
2017-Nov-07 16:27N 40°30' W 074°07'1 1.5
2017-Nov-07 15:53N 40°30' W 074°06'2 3.2
2017-Nov-07 15:24N 40°30' W 074°04'3 2.7
2017-Nov-07 14:24N 40°30' W 074°08'3 7.7
2017-Nov-07 14:00N 40°30' W 074°12'  

Dump ship's entire track history